Kezdőlap
METAR-TAF:

METAR-TAF

Repülőterek :

Smith Field

Siloam Springs, Arkansas, Amerikai Egyesült Államok

földrajzi szélesség: 36-12N, földrajzi hosszúság: 094-29W, magasság: 300 m

Jelenlegi meteorológiai megfigyelések

A jelentés 37 perccel ezelõtt készült, 19:56 UTC
Déli szél 9 kt
Hőmérséklet 32°C
Páratartalom 49%
Légköri nyomás 1014 hPa
Látótávolság: 16.1 km
Derült ég

METAR: KSLG 151956Z AUTO 18009KT 10SM CLR 32/20 A2995 RMK AO2 SLP127 T03170200 PNO $

Idő: 15:33 (20:33 UTC)


TAF: hiányzik

Meteorológiai megfigyelések és előrejelzések több, mint 4000 repülőtéren (METAR és TAF jelentéseket).

A térképen piros és sárga pontok jelzik az elérhető meteorológiai állomásokat.

Mozgassa az egeret a pont fölött, hogy megjelenjen az állomás neve.

Azután kattintson az időjárási megfigyelések és előrejelzések megtekintéséhez.

A térkép megváltoztatása: kattintson a fekete keresztel jelölt zöld gombra ráközelítéshez, a vonallal jelölt zöld gombra távolításhoz, vagy a zöld nyilakra a szomszédos térképek eléréséhez.


METAR-TAF: